Time;durP1;ratioP1;P1;durP2;ratioP2;P2;SDS_P1;SDS_P2;PMS_P1;PMS_P2;Temp;Humidity;BMP_temperature;BMP_pressure;BME280_temperature;BME280_humidity;BME280_pressure;Samples;Min_cycle;Max_cycle;Signal;HPM_P1;HPM_P2
2023/06/12 00:00:53;;;;;;;5.05;4.00;;;19.90;60.10;;;;;;5008258;28;20029;-65
2023/06/12 00:03:20;;;;;;;7.07;4.50;;;19.80;60.00;;;;;;5009312;28;20041;-65
2023/06/12 00:05:46;;;;;;;6.18;4.28;;;19.70;60.00;;;;;;5011153;28;20038;-64
2023/06/12 00:08:13;;;;;;;6.25;4.22;;;19.70;60.10;;;;;;5012465;28;20033;-64
2023/06/12 00:10:40;;;;;;;7.80;4.45;;;19.60;60.20;;;;;;5011448;28;20065;-66
2023/06/12 00:13:10;;;;;;;10.18;4.72;;;19.60;60.30;;;;;;5011425;28;20040;-65
2023/06/12 00:15:36;;;;;;;5.47;4.57;;;19.50;60.30;;;;;;5005303;28;20821;-65
2023/06/12 00:18:02;;;;;;;6.32;4.30;;;19.50;60.40;;;;;;5009858;28;20648;-64
2023/06/12 00:20:29;;;;;;;7.55;4.43;;;19.50;60.00;;;;;;5013804;28;20095;-65
2023/06/12 00:22:56;;;;;;;6.60;4.15;;;19.40;60.10;;;;;;5006087;28;20630;-65
2023/06/12 00:25:21;;;;;;;5.72;4.75;;;19.40;60.20;;;;;;5011124;28;20038;-65
2023/06/12 00:27:47;;;;;;;5.32;4.18;;;19.40;60.40;;;;;;5012384;28;20235;-64
2023/06/12 00:30:14;;;;;;;6.25;4.20;;;19.40;60.70;;;;;;5012190;28;20076;-67
2023/06/12 00:32:40;;;;;;;6.53;4.18;;;19.30;60.90;;;;;;5012763;28;20025;-65
2023/06/12 00:35:07;;;;;;;4.60;4.20;;;19.30;61.00;;;;;;5010401;28;20026;-65
2023/06/12 00:37:33;;;;;;;7.50;4.60;;;19.20;61.10;;;;;;5009502;28;20088;-65
2023/06/12 00:39:59;;;;;;;6.25;4.93;;;19.20;60.90;;;;;;5009597;28;20033;-64
2023/06/12 00:42:33;;;;;;;6.45;4.55;;;19.10;61.10;;;;;;5003008;28;20030;-65
2023/06/12 00:45:00;;;;;;;6.72;4.50;;;19.10;61.00;;;;;;5007334;28;20038;-65
2023/06/12 00:47:26;;;;;;;5.22;4.03;;;19.10;61.00;;;;;;5010315;28;20060;-64
2023/06/12 00:49:52;;;;;;;8.45;4.35;;;19.00;61.20;;;;;;4995023;28;20037;-64
2023/06/12 00:52:21;;;;;;;5.25;4.07;;;19.00;61.10;;;;;;5011794;28;20053;-65
2023/06/12 00:54:50;;;;;;;6.43;4.03;;;18.90;61.30;;;;;;4994912;28;20033;-65
2023/06/12 00:57:16;;;;;;;6.10;4.50;;;18.90;61.20;;;;;;4994304;28;20110;-64
2023/06/12 00:59:42;;;;;;;6.43;4.20;;;18.80;61.30;;;;;;5010253;28;20124;-65
2023/06/12 01:02:09;;;;;;;8.65;4.25;;;18.80;61.50;;;;;;5013131;28;20029;-64
2023/06/12 01:04:37;;;;;;;5.47;4.03;;;18.80;60.60;;;;;;4978089;28;20041;-65
2023/06/12 01:07:21;;;;;;;6.47;4.15;;;18.80;60.90;;;;;;4991535;28;20036;-65
2023/06/12 01:10:00;;;;;;;5.03;3.72;;;18.70;60.80;;;;;;4985074;28;20034;-66
2023/06/12 01:12:28;;;;;;;6.40;3.92;;;18.70;61.00;;;;;;4997414;28;20029;-65
2023/06/12 01:14:54;;;;;;;8.02;3.78;;;18.60;60.90;;;;;;4994808;28;20049;-66
2023/06/12 01:17:20;;;;;;;7.40;4.47;;;18.60;60.60;;;;;;4996437;28;20057;-64
2023/06/12 01:19:46;;;;;;;5.50;3.78;;;18.60;60.70;;;;;;4994405;28;20029;-65
2023/06/12 01:22:13;;;;;;;5.18;3.53;;;18.50;60.40;;;;;;4996360;28;20043;-65
2023/06/12 01:24:58;;;;;;;5.72;3.85;;;18.50;59.90;;;;;;4995321;28;20045;-65
2023/06/12 01:27:30;;;;;;;6.10;3.45;;;18.50;59.70;;;;;;5011235;28;20029;-65
2023/06/12 01:30:13;;;;;;;5.18;3.80;;;18.40;59.40;;;;;;4998265;28;20034;-65
2023/06/12 01:32:39;;;;;;;4.13;3.22;;;18.40;59.60;;;;;;4990539;28;20053;-66
2023/06/12 01:35:11;;;;;;;5.05;3.70;;;18.30;59.10;;;;;;5013178;28;20116;-65
2023/06/12 01:37:50;;;;;;;4.13;3.58;;;18.40;59.20;;;;;;4996771;28;20026;-66
2023/06/12 01:40:28;;;;;;;4.95;3.42;;;18.30;59.20;;;;;;4993834;28;20041;-66
2023/06/12 01:42:54;;;;;;;4.28;3.45;;;18.30;59.00;;;;;;4993042;28;20045;-66
2023/06/12 01:45:20;;;;;;;4.85;3.80;;;18.30;58.60;;;;;;4996789;28;20053;-66
2023/06/12 01:47:46;;;;;;;8.45;3.72;;;18.30;59.00;;;;;;5014490;28;20041;-65
2023/06/12 01:50:16;;;;;;;5.40;3.47;;;18.30;59.10;;;;;;5012516;28;20022;-66
2023/06/12 01:52:42;;;;;;;8.10;3.10;;;18.20;59.10;;;;;;4991396;28;20092;-65
2023/06/12 01:55:09;;;;;;;4.68;3.75;;;18.20;58.80;;;;;;5015497;28;20033;-66
2023/06/12 01:57:37;;;;;;;4.10;3.30;;;18.20;59.30;;;;;;4983436;28;20106;-65
2023/06/12 02:00:04;;;;;;;5.25;3.85;;;18.20;59.20;;;;;;4995998;28;20039;-65
2023/06/12 02:02:46;;;;;;;4.97;3.25;;;18.20;59.10;;;;;;5014323;28;20038;-66
2023/06/12 02:05:15;;;;;;;4.00;3.60;;;18.10;58.60;;;;;;4993304;28;20034;-65
2023/06/12 02:07:41;;;;;;;4.95;3.42;;;18.10;59.10;;;;;;5015485;28;20044;-65
2023/06/12 02:10:07;;;;;;;6.97;3.80;;;18.00;58.30;;;;;;4997566;28;20037;-65
2023/06/12 02:12:34;;;;;;;4.65;3.58;;;18.00;58.60;;;;;;5009531;28;20022;-65
2023/06/12 02:15:00;;;;;;;4.85;3.50;;;18.00;58.60;;;;;;4990964;28;20127;-65
2023/06/12 02:17:26;;;;;;;4.05;2.92;;;18.00;58.70;;;;;;4995170;28;20120;-66
2023/06/12 02:19:52;;;;;;;5.40;3.40;;;17.90;58.90;;;;;;4995023;28;20036;-66
2023/06/12 02:22:18;;;;;;;4.60;3.47;;;17.90;58.80;;;;;;4992337;28;20026;-65
2023/06/12 02:24:44;;;;;;;4.45;3.13;;;17.80;59.20;;;;;;4993519;28;20045;-66
2023/06/12 02:27:10;;;;;;;6.18;3.20;;;17.80;59.30;;;;;;4989587;28;20116;-66
2023/06/12 02:29:36;;;;;;;11.18;3.78;;;17.70;59.40;;;;;;4993636;28;20470;-66
2023/06/12 02:32:03;;;;;;;5.03;3.47;;;17.70;59.70;;;;;;4990446;28;20077;-66
2023/06/12 02:34:29;;;;;;;6.03;3.55;;;17.60;59.40;;;;;;4993285;28;20036;-65
2023/06/12 02:36:55;;;;;;;4.88;3.20;;;17.60;59.20;;;;;;4995925;28;20044;-65
2023/06/12 02:39:24;;;;;;;7.70;3.88;;;17.60;59.30;;;;;;5012316;28;20109;-66
2023/06/12 02:41:51;;;;;;;4.32;3.22;;;17.50;59.20;;;;;;4995647;28;20038;-66
2023/06/12 02:44:17;;;;;;;11.43;3.50;;;17.60;59.10;;;;;;4993305;28;20025;-65
2023/06/12 02:46:59;;;;;;;5.80;3.60;;;17.50;59.20;;;;;;4994397;28;20061;-67
2023/06/12 02:49:30;;;;;;;4.25;3.72;;;17.50;59.20;;;;;;4992448;28;20018;-66
2023/06/12 02:51:57;;;;;;;4.25;3.10;;;17.60;59.10;;;;;;4992741;28;20777;-66
2023/06/12 02:54:26;;;;;;;3.50;3.20;;;17.50;59.10;;;;;;4995064;28;20930;-66
2023/06/12 02:56:52;;;;;;;5.85;3.35;;;17.40;59.00;;;;;;4996773;28;20036;-66
2023/06/12 02:59:22;;;;;;;4.53;3.42;;;17.40;58.90;;;;;;4995172;28;20025;-65
2023/06/12 03:01:50;;;;;;;4.07;3.28;;;17.40;58.30;;;;;;4992678;28;20084;-67
2023/06/12 03:04:24;;;;;;;4.28;2.83;;;17.40;58.80;;;;;;4990872;28;20033;-66
2023/06/12 03:06:53;;;;;;;3.58;2.80;;;17.40;58.70;;;;;;5010362;28;20043;-66
2023/06/12 03:09:20;;;;;;;4.47;3.15;;;17.40;59.20;;;;;;5008057;28;20029;-67
2023/06/12 03:11:51;;;;;;;5.68;3.10;;;17.30;59.10;;;;;;4994523;28;20025;-66
2023/06/12 03:14:21;;;;;;;4.35;3.13;;;17.30;58.80;;;;;;4980221;28;20026;-66
2023/06/12 03:16:48;;;;;;;4.28;3.03;;;17.30;58.90;;;;;;5014139;28;20033;-67
2023/06/12 03:19:14;;;;;;;4.97;2.97;;;17.30;59.10;;;;;;4992925;28;20049;-65
2023/06/12 03:21:40;;;;;;;4.80;3.40;;;17.30;59.30;;;;;;5012388;28;20115;-66
2023/06/12 03:24:06;;;;;;;6.18;3.65;;;17.20;58.90;;;;;;5011793;28;20128;-66
2023/06/12 03:26:33;;;;;;;4.70;3.45;;;17.20;59.00;;;;;;5012509;28;20106;-65
2023/06/12 03:29:01;;;;;;;6.00;3.55;;;17.20;59.30;;;;;;4997153;28;20112;-66
2023/06/12 03:31:28;;;;;;;5.38;2.95;;;17.20;59.50;;;;;;4995643;28;20041;-66
2023/06/12 03:33:56;;;;;;;7.55;3.15;;;17.10;59.70;;;;;;4996753;28;20508;-67
2023/06/12 03:36:24;;;;;;;3.97;3.22;;;17.10;59.60;;;;;;4994982;28;20062;-66
2023/06/12 03:38:51;;;;;;;4.22;3.35;;;17.10;59.70;;;;;;4995495;28;20033;-66
2023/06/12 03:41:20;;;;;;;4.57;3.25;;;17.10;59.40;;;;;;4985984;28;20521;-67
2023/06/12 03:43:46;;;;;;;5.18;3.35;;;17.00;59.40;;;;;;5012933;28;20397;-66
2023/06/12 03:46:12;;;;;;;4.47;3.30;;;17.10;60.30;;;;;;4993778;28;20038;-66
2023/06/12 03:48:38;;;;;;;5.32;3.00;;;17.10;60.90;;;;;;4993528;28;20148;-66
2023/06/12 03:51:05;;;;;;;4.47;3.30;;;17.10;61.20;;;;;;4992275;28;20025;-64
2023/06/12 03:53:31;;;;;;;3.63;2.70;;;17.00;60.50;;;;;;4994683;28;20032;-64
2023/06/12 03:55:57;;;;;;;5.63;3.10;;;17.10;60.40;;;;;;4991960;28;20032;-64
2023/06/12 03:58:24;;;;;;;4.30;3.55;;;17.00;61.20;;;;;;4993012;28;20053;-64
2023/06/12 04:00:51;;;;;;;4.75;3.10;;;17.10;61.30;;;;;;4998135;28;20033;-64
2023/06/12 04:03:18;;;;;;;9.27;3.55;;;17.10;60.50;;;;;;5010797;28;20059;-63
2023/06/12 04:05:45;;;;;;;7.35;3.40;;;17.10;61.70;;;;;;4996066;28;20030;-63
2023/06/12 04:08:11;;;;;;;5.60;3.42;;;17.10;59.60;;;;;;4990877;28;20042;-63
2023/06/12 04:10:37;;;;;;;5.25;2.97;;;17.10;61.20;;;;;;4994426;28;20442;-63
2023/06/12 04:13:03;;;;;;;5.97;3.15;;;17.10;61.30;;;;;;4991064;28;20021;-63
2023/06/12 04:15:29;;;;;;;7.22;3.58;;;17.10;61.90;;;;;;4991394;28;20504;-64
2023/06/12 04:17:57;;;;;;;7.82;3.47;;;17.10;61.90;;;;;;4994044;28;20130;-64
2023/06/12 04:20:23;;;;;;;6.45;3.42;;;17.10;62.30;;;;;;4977918;28;20038;-64
2023/06/12 04:22:50;;;;;;;7.05;3.30;;;17.10;62.00;;;;;;5012151;28;20029;-64
2023/06/12 04:25:16;;;;;;;8.40;3.35;;;17.10;62.90;;;;;;5008305;28;20030;-64
2023/06/12 04:27:42;;;;;;;5.75;3.55;;;17.20;62.50;;;;;;4989449;28;20038;-63
2023/06/12 04:30:09;;;;;;;5.53;3.45;;;17.20;63.30;;;;;;4990261;28;20050;-64
2023/06/12 04:32:35;;;;;;;4.72;3.20;;;17.20;63.10;;;;;;4990770;28;20022;-64
2023/06/12 04:35:02;;;;;;;5.13;3.58;;;17.20;62.20;;;;;;5012161;28;20044;-63
2023/06/12 04:37:28;;;;;;;4.95;3.30;;;17.20;62.90;;;;;;5009209;28;20030;-63
2023/06/12 04:39:55;;;;;;;8.18;2.90;;;17.20;63.10;;;;;;5011696;28;20144;-63
2023/06/12 04:42:23;;;;;;;3.67;3.05;;;17.20;63.20;;;;;;4991712;28;20063;-64
2023/06/12 04:44:49;;;;;;;5.50;3.30;;;17.30;63.30;;;;;;5010998;28;20437;-63
2023/06/12 04:47:16;;;;;;;6.88;2.83;;;17.30;62.60;;;;;;4994497;28;20026;-64
2023/06/12 04:49:45;;;;;;;4.80;2.78;;;17.40;62.00;;;;;;4995719;28;20049;-64
2023/06/12 04:52:19;;;;;;;6.68;3.00;;;17.40;62.40;;;;;;5015076;28;20077;-64
2023/06/12 04:54:45;;;;;;;4.28;2.78;;;17.50;62.80;;;;;;4998943;28;20025;-64
2023/06/12 04:57:16;;;;;;;9.57;3.15;;;17.60;61.50;;;;;;4992995;28;20551;-64
2023/06/12 04:59:45;;;;;;;4.30;2.72;;;17.60;57.90;;;;;;4997909;28;20149;-64
2023/06/12 05:02:12;;;;;;;4.32;2.60;;;17.70;59.90;;;;;;4994655;28;20030;-64
2023/06/12 05:04:40;;;;;;;3.28;2.65;;;17.70;61.60;;;;;;4995471;28;20025;-63
2023/06/12 05:07:14;;;;;;;4.00;2.60;;;17.80;59.90;;;;;;4994861;28;20851;-64
2023/06/12 05:09:41;;;;;;;5.50;2.70;;;17.90;57.10;;;;;;4996282;28;20044;-64
2023/06/12 05:12:08;;;;;;;5.63;2.47;;;18.00;58.60;;;;;;4992477;28;20139;-64
2023/06/12 05:14:38;;;;;;;7.20;2.67;;;18.10;59.40;;;;;;4979990;28;20037;-64
2023/06/12 05:17:05;;;;;;;7.35;2.60;;;18.10;59.90;;;;;;4997562;28;20022;-64
2023/06/12 05:19:30;;;;;;;6.50;3.20;;;18.20;59.60;;;;;;4994175;28;20517;-65
2023/06/12 05:21:56;;;;;;;4.32;2.53;;;18.30;57.70;;;;;;4985827;28;20122;-64
2023/06/12 05:24:22;;;;;;;4.47;2.92;;;18.40;57.60;;;;;;4987946;28;20034;-63
2023/06/12 05:26:50;;;;;;;5.18;2.72;;;18.60;57.60;;;;;;4997292;28;20037;-63
2023/06/12 05:29:16;;;;;;;7.55;3.35;;;18.70;57.40;;;;;;4990379;28;20029;-64
2023/06/12 05:31:42;;;;;;;4.75;2.83;;;18.80;58.00;;;;;;4997229;28;20037;-64
2023/06/12 05:34:08;;;;;;;4.60;2.88;;;18.90;56.80;;;;;;4996338;28;20032;-64
2023/06/12 05:36:35;;;;;;;6.13;3.00;;;19.00;54.80;;;;;;4996535;28;20026;-63
2023/06/12 05:39:03;;;;;;;8.65;2.83;;;19.00;55.60;;;;;;4999315;28;20060;-63
2023/06/12 05:41:29;;;;;;;4.85;2.45;;;19.10;54.70;;;;;;4995156;28;20068;-63
2023/06/12 05:43:55;;;;;;;5.35;2.65;;;19.20;54.70;;;;;;5016019;28;20042;-63
2023/06/12 05:46:20;;;;;;;7.32;2.78;;;19.20;55.20;;;;;;4995226;28;20030;-63
2023/06/12 05:48:46;;;;;;;4.32;2.83;;;19.40;54.00;;;;;;4993124;28;20029;-63
2023/06/12 05:51:12;;;;;;;5.75;3.03;;;19.50;53.70;;;;;;4994779;28;20466;-63
2023/06/12 05:53:39;;;;;;;6.07;2.97;;;19.50;52.70;;;;;;4996105;28;20064;-63
2023/06/12 05:56:05;;;;;;;4.93;2.63;;;19.60;52.60;;;;;;4993501;28;20116;-63
2023/06/12 05:58:31;;;;;;;6.45;2.92;;;19.80;54.00;;;;;;4992769;28;20042;-62
2023/06/12 06:00:57;;;;;;;5.25;2.40;;;19.90;54.30;;;;;;4997264;28;20037;-63
2023/06/12 06:03:45;;;;;;;7.65;2.53;;;20.00;54.40;;;;;;5011717;28;20037;-62
2023/06/12 06:06:17;;;;;;;5.38;2.70;;;20.10;52.50;;;;;;5013516;28;20124;-63
2023/06/12 06:08:44;;;;;;;10.20;3.40;;;20.20;53.80;;;;;;4997585;28;20147;-63
2023/06/12 06:11:10;;;;;;;5.70;3.08;;;20.30;53.10;;;;;;4994084;28;20025;-63
2023/06/12 06:13:36;;;;;;;6.93;2.83;;;20.50;54.40;;;;;;4996703;28;20029;-64
2023/06/12 06:16:02;;;;;;;10.13;3.05;;;20.60;54.00;;;;;;5011882;28;20030;-64
2023/06/12 06:18:29;;;;;;;4.35;2.60;;;20.70;53.30;;;;;;4993618;28;20029;-64
2023/06/12 06:20:56;;;;;;;5.43;2.63;;;20.70;52.60;;;;;;4996536;28;20040;-63
2023/06/12 06:23:22;;;;;;;7.40;2.92;;;20.80;52.50;;;;;;4988448;28;20478;-63
2023/06/12 06:25:49;;;;;;;5.95;2.78;;;21.00;52.10;;;;;;5015392;28;20159;-63
2023/06/12 06:28:15;;;;;;;3.67;2.42;;;21.00;51.90;;;;;;4992982;28;20387;-63
2023/06/12 06:30:41;;;;;;;4.05;2.60;;;21.10;50.20;;;;;;5014388;28;20041;-63
2023/06/12 06:33:07;;;;;;;6.30;2.67;;;21.20;50.70;;;;;;5010839;28;20634;-62
2023/06/12 06:35:33;;;;;;;5.50;2.92;;;21.20;50.10;;;;;;4993386;28;20022;-63
2023/06/12 06:37:58;;;;;;;9.57;2.80;;;21.30;50.00;;;;;;4996850;28;20033;-63
2023/06/12 06:40:25;;;;;;;3.75;2.70;;;21.40;50.00;;;;;;5009750;28;20041;-63
2023/06/12 06:42:54;;;;;;;6.60;2.67;;;21.50;49.90;;;;;;4991286;28;20079;-63
2023/06/12 06:45:23;;;;;;;4.13;2.90;;;21.50;50.00;;;;;;4993803;28;20037;-63
2023/06/12 06:47:51;;;;;;;5.70;2.75;;;21.60;50.20;;;;;;4995616;28;20029;-63
2023/06/12 06:50:18;;;;;;;3.85;2.58;;;21.70;49.70;;;;;;4993855;28;20124;-63
2023/06/12 06:52:45;;;;;;;6.40;3.15;;;21.70;49.90;;;;;;4988179;28;20867;-63
2023/06/12 06:55:13;;;;;;;4.18;2.67;;;21.80;50.00;;;;;;4993925;28;20444;-63
2023/06/12 06:57:39;;;;;;;6.38;2.90;;;21.90;49.20;;;;;;4993604;28;20029;-62
2023/06/12 07:00:06;;;;;;;4.88;2.63;;;22.10;49.30;;;;;;4991015;28;20037;-63
2023/06/12 07:02:33;;;;;;;6.30;2.92;;;22.10;48.70;;;;;;4989726;28;20029;-63
2023/06/12 07:05:01;;;;;;;4.53;2.83;;;22.20;48.70;;;;;;4993635;28;20505;-64
2023/06/12 07:07:28;;;;;;;4.95;3.03;;;22.30;49.30;;;;;;4995015;28;20461;-63
2023/06/12 07:09:55;;;;;;;11.23;3.42;;;22.40;47.90;;;;;;4992214;28;22004;-63
2023/06/12 07:12:21;;;;;;;4.20;2.67;;;22.50;48.30;;;;;;4989879;28;20072;-63
2023/06/12 07:14:47;;;;;;;5.57;2.78;;;22.50;48.20;;;;;;4994550;28;20030;-63
2023/06/12 07:17:16;;;;;;;6.10;2.80;;;22.60;47.00;;;;;;4992932;28;20029;-63
2023/06/12 07:19:43;;;;;;;9.23;3.10;;;22.70;47.80;;;;;;5013203;28;20022;-63
2023/06/12 07:22:09;;;;;;;8.85;2.75;;;22.90;47.20;;;;;;4992934;28;20040;-62
2023/06/12 07:24:36;;;;;;;9.82;2.88;;;22.90;47.20;;;;;;4995651;28;20029;-62
2023/06/12 07:27:02;;;;;;;3.45;2.80;;;23.00;47.70;;;;;;4991872;28;20021;-62
2023/06/12 07:29:28;;;;;;;8.85;3.00;;;23.00;47.20;;;;;;5010129;28;20145;-62
2023/06/12 07:31:54;;;;;;;5.20;2.97;;;23.10;47.80;;;;;;4993559;28;20087;-64
2023/06/12 07:34:20;;;;;;;6.05;2.70;;;23.20;48.00;;;;;;4987673;28;20932;-63
2023/06/12 07:36:46;;;;;;;5.78;3.15;;;23.30;46.00;;;;;;4995508;28;20029;-63
2023/06/12 07:39:13;;;;;;;4.65;2.75;;;23.40;46.50;;;;;;5009469;28;20028;-63
2023/06/12 07:41:42;;;;;;;3.72;2.70;;;23.50;46.10;;;;;;4995164;28;20033;-63
2023/06/12 07:44:10;;;;;;;4.63;2.45;;;23.60;46.00;;;;;;4990872;28;20133;-63
2023/06/12 07:46:41;;;;;;;4.95;2.67;;;23.70;46.50;;;;;;4994129;28;20034;-63
2023/06/12 07:49:07;;;;;;;5.45;2.53;;;23.70;46.10;;;;;;4995741;28;20448;-64
2023/06/12 07:51:33;;;;;;;4.13;2.60;;;23.70;44.60;;;;;;4994207;28;20136;-63
2023/06/12 07:53:59;;;;;;;5.18;2.47;;;23.80;45.10;;;;;;4996085;28;20021;-63
2023/06/12 07:56:27;;;;;;;6.35;2.67;;;23.80;45.80;;;;;;5011763;28;20648;-63
2023/06/12 07:58:55;;;;;;;4.35;2.50;;;23.90;45.80;;;;;;4995154;28;20083;-63
2023/06/12 08:01:22;;;;;;;2.67;2.35;;;24.00;44.00;;;;;;4995994;28;20033;-63
2023/06/12 08:03:49;;;;;;;7.78;2.42;;;24.10;43.40;;;;;;5013498;28;20139;-63
2023/06/12 08:06:15;;;;;;;4.85;2.92;;;24.20;41.60;;;;;;4996194;28;20041;-63
2023/06/12 08:08:47;;;;;;;8.13;2.60;;;24.20;42.50;;;;;;5012291;28;20021;-63
2023/06/12 08:11:14;;;;;;;3.60;2.35;;;24.30;41.80;;;;;;5009926;28;20069;-63
2023/06/12 08:13:43;;;;;;;4.72;2.70;;;24.40;42.10;;;;;;5012427;28;20569;-64
2023/06/12 08:16:10;;;;;;;3.83;2.75;;;24.40;41.20;;;;;;4991568;28;20109;-63
2023/06/12 08:18:36;;;;;;;3.28;2.22;;;24.50;41.30;;;;;;5011831;28;20164;-64
2023/06/12 08:21:03;;;;;;;7.53;2.70;;;24.50;40.80;;;;;;4989120;28;20036;-63
2023/06/12 08:23:29;;;;;;;4.82;2.30;;;24.60;40.50;;;;;;4984976;28;20033;-63
2023/06/12 08:25:56;;;;;;;4.10;2.20;;;24.80;40.30;;;;;;4995093;28;20374;-64
2023/06/12 08:28:22;;;;;;;5.72;2.55;;;24.80;40.30;;;;;;4989010;28;20028;-64
2023/06/12 08:30:50;;;;;;;6.15;2.55;;;24.90;39.80;;;;;;4995379;28;20572;-64
2023/06/12 08:33:16;;;;;;;3.97;2.40;;;24.90;39.70;;;;;;4975427;28;20587;-64
2023/06/12 08:35:43;;;;;;;6.38;2.60;;;25.00;39.90;;;;;;4995285;28;20076;-63
2023/06/12 08:38:09;;;;;;;7.93;2.28;;;25.10;39.30;;;;;;4987756;28;20060;-63
2023/06/12 08:40:36;;;;;;;3.38;2.30;;;25.10;38.70;;;;;;5009772;28;20122;-63
2023/06/12 08:43:02;;;;;;;3.67;2.20;;;25.10;39.20;;;;;;4991449;28;20136;-63
2023/06/12 08:45:32;;;;;;;6.50;2.30;;;25.20;37.90;;;;;;4990548;28;20025;-64
2023/06/12 08:48:00;;;;;;;5.32;2.42;;;25.20;39.40;;;;;;5010283;28;20025;-63
2023/06/12 08:50:27;;;;;;;5.45;2.15;;;25.10;37.80;;;;;;5010484;28;20054;-63
2023/06/12 08:52:53;;;;;;;3.63;2.42;;;25.10;39.30;;;;;;5011946;28;20124;-63
2023/06/12 08:55:20;;;;;;;6.07;2.80;;;25.00;38.30;;;;;;5009342;28;20041;-63
2023/06/12 08:57:47;;;;;;;2.50;2.17;;;25.10;38.10;;;;;;5011076;28;20022;-63
2023/06/12 09:00:13;;;;;;;3.67;2.67;;;25.10;38.60;;;;;;5012302;28;20104;-64
2023/06/12 09:02:49;;;;;;;4.90;2.60;;;25.10;39.20;;;;;;5009927;28;20038;-63
2023/06/12 09:05:17;;;;;;;2.67;2.13;;;25.20;39.40;;;;;;5011285;28;20041;-64
2023/06/12 09:07:45;;;;;;;4.30;2.58;;;25.30;39.60;;;;;;5012538;28;20449;-63
2023/06/12 09:10:11;;;;;;;7.45;3.05;;;25.40;39.80;;;;;;5006021;28;20503;-63
2023/06/12 09:12:37;;;;;;;6.30;2.67;;;25.50;38.80;;;;;;5005846;28;20026;-63
2023/06/12 09:15:03;;;;;;;3.30;2.58;;;25.50;39.40;;;;;;5007676;28;20151;-63
2023/06/12 09:17:29;;;;;;;3.70;2.50;;;25.60;38.80;;;;;;5007708;28;20397;-64
2023/06/12 09:19:55;;;;;;;3.55;2.33;;;25.70;39.40;;;;;;4988417;28;20018;-63
2023/06/12 09:22:21;;;;;;;4.25;2.70;;;25.90;38.60;;;;;;5006788;28;20454;-64
2023/06/12 09:24:47;;;;;;;4.35;2.80;;;25.90;38.80;;;;;;5006725;28;20791;-64
2023/06/12 09:27:14;;;;;;;5.30;2.80;;;26.00;40.00;;;;;;5005733;28;20072;-64
2023/06/12 09:29:41;;;;;;;5.18;3.03;;;26.10;39.20;;;;;;5007795;28;20824;-63
2023/06/12 09:32:10;;;;;;;5.00;3.22;;;26.20;38.20;;;;;;5008418;28;20038;-64
2023/06/12 09:34:36;;;;;;;3.05;2.50;;;26.10;38.90;;;;;;5009666;28;20022;-64
2023/06/12 09:37:06;;;;;;;4.30;2.75;;;26.20;39.70;;;;;;5015602;28;20040;-64
2023/06/12 09:39:33;;;;;;;3.55;2.60;;;26.40;39.30;;;;;;5012703;28;20025;-63
2023/06/12 09:42:00;;;;;;;6.10;2.72;;;26.40;38.30;;;;;;5014710;28;20021;-64
2023/06/12 09:44:28;;;;;;;5.55;3.08;;;26.30;39.10;;;;;;5013895;28;20497;-63
2023/06/12 09:47:02;;;;;;;6.78;2.83;;;26.20;38.80;;;;;;5013670;28;20030;-63
2023/06/12 09:49:29;;;;;;;8.82;3.30;;;26.20;39.60;;;;;;5012103;28;20037;-64
2023/06/12 09:51:55;;;;;;;6.03;2.70;;;26.30;40.20;;;;;;5013792;28;20037;-64
2023/06/12 09:54:23;;;;;;;3.03;2.72;;;26.50;39.20;;;;;;5012839;28;20045;-64
2023/06/12 09:56:52;;;;;;;4.60;2.42;;;26.60;39.10;;;;;;5015011;28;20052;-64
2023/06/12 09:59:19;;;;;;;4.13;2.75;;;26.70;39.30;;;;;;5009540;28;20025;-64
2023/06/12 10:01:55;;;;;;;5.63;2.88;;;26.80;39.20;;;;;;5010514;28;20037;-64
2023/06/12 10:05:02;;;;;;;5.63;2.50;;;26.80;38.80;;;;;;4995357;28;20065;-64
2023/06/12 10:07:32;;;;;;;5.47;2.90;;;26.70;38.40;;;;;;5010983;28;20049;-63
2023/06/12 10:10:01;;;;;;;6.63;3.00;;;26.70;39.60;;;;;;5014959;28;20033;-63
2023/06/12 10:12:29;;;;;;;6.50;3.00;;;26.60;39.10;;;;;;5011066;28;20505;-65
2023/06/12 10:14:56;;;;;;;10.68;3.00;;;26.70;39.40;;;;;;5015271;28;20048;-64
2023/06/12 10:17:23;;;;;;;5.13;3.08;;;26.60;38.70;;;;;;5011928;28;20196;-64
2023/06/12 10:19:52;;;;;;;4.20;2.47;;;26.60;37.80;;;;;;5014496;28;20061;-64
2023/06/12 10:22:17;;;;;;;3.90;2.70;;;26.60;38.50;;;;;;5015396;28;20071;-64
2023/06/12 10:24:44;;;;;;;3.92;2.58;;;26.60;38.60;;;;;;4991952;28;20441;-64
2023/06/12 10:27:12;;;;;;;3.45;2.67;;;26.70;39.10;;;;;;5011688;28;20040;-64
2023/06/12 10:29:39;;;;;;;3.70;2.60;;;26.90;39.10;;;;;;5012537;28;20386;-64
2023/06/12 10:32:10;;;;;;;3.33;2.88;;;27.10;38.60;;;;;;5013510;28;20203;-64
2023/06/12 10:34:41;;;;;;;3.65;2.33;;;27.40;39.80;;;;;;5011819;28;20022;-64
2023/06/12 10:37:32;;;;;;;8.25;4.80;;;27.50;38.40;;;;;;5012165;28;20037;-64
2023/06/12 10:40:18;;;;;;;4.32;2.70;;;27.70;37.80;;;;;;5012138;28;20053;-64
2023/06/12 10:42:51;;;;;;;9.43;2.85;;;27.80;36.60;;;;;;5009300;28;20026;-64
2023/06/12 10:45:28;;;;;;;3.78;2.53;;;28.10;37.90;;;;;;5012146;28;20025;-64
2023/06/12 10:48:06;;;;;;;4.45;2.50;;;28.10;36.50;;;;;;5015328;28;20033;-64
2023/06/12 10:50:36;;;;;;;4.68;2.78;;;28.20;37.80;;;;;;5009329;28;20034;-64
2023/06/12 10:53:07;;;;;;;4.85;3.00;;;28.40;37.70;;;;;;5011822;28;20059;-64
2023/06/12 10:55:35;;;;;;;5.30;3.10;;;28.70;37.10;;;;;;5011621;28;20026;-64
2023/06/12 10:58:06;;;;;;;5.15;3.05;;;28.90;36.00;;;;;;5011745;28;20042;-64
2023/06/12 11:00:46;;;;;;;7.03;3.03;;;29.00;36.20;;;;;;5010510;28;20034;-63
2023/06/12 11:03:16;;;;;;;3.85;2.63;;;29.00;37.80;;;;;;5008018;28;20034;-64
2023/06/12 11:05:58;;;;;;;9.25;3.00;;;29.20;37.20;;;;;;5013545;28;20057;-64
2023/06/12 11:08:30;;;;;;;6.47;2.70;;;29.20;37.60;;;;;;5008427;28;20036;-64
2023/06/12 11:10:56;;;;;;;5.55;3.22;;;29.10;38.80;;;;;;5015227;28;20029;-64
2023/06/12 11:13:25;;;;;;;7.68;3.30;;;29.10;38.60;;;;;;5010969;28;20099;-64
2023/06/12 11:15:52;;;;;;;4.32;3.20;;;29.00;38.50;;;;;;5012139;28;20034;-64
2023/06/12 11:18:18;;;;;;;3.88;3.05;;;28.70;39.10;;;;;;5008990;28;20037;-64
2023/06/12 11:20:54;;;;;;;3.40;2.85;;;28.40;40.00;;;;;;5012078;28;20034;-64
2023/06/12 11:23:28;;;;;;;;;;;28.20;40.20;;;;;;5010573;28;20025;-64
2023/06/12 11:25:57;;;;;;;3.38;2.83;;;28.10;40.90;;;;;;5008184;28;20704;-64
2023/06/12 11:28:24;;;;;;;3.70;3.08;;;28.00;40.80;;;;;;5010046;28;20038;-64
2023/06/12 11:30:51;;;;;;;3.33;2.65;;;27.80;40.60;;;;;;5012589;28;20144;-63
2023/06/12 11:33:17;;;;;;;5.05;3.25;;;27.80;41.80;;;;;;5010260;28;20025;-63
2023/06/12 11:35:48;;;;;;;4.00;3.30;;;27.60;40.50;;;;;;5009701;28;20033;-64
2023/06/12 11:38:16;;;;;;;4.55;2.90;;;27.40;41.70;;;;;;5010805;28;20030;-63
2023/06/12 11:40:43;;;;;;;4.60;3.00;;;27.40;41.20;;;;;;4993305;28;20042;-64
2023/06/12 11:43:09;;;;;;;3.72;2.80;;;27.30;40.60;;;;;;5008786;28;20029;-64
2023/06/12 11:45:41;;;;;;;3.08;2.53;;;27.20;41.00;;;;;;5010923;28;20457;-64
2023/06/12 11:48:13;;;;;;;4.07;2.58;;;27.20;40.70;;;;;;5011239;28;20041;-64
2023/06/12 11:50:40;;;;;;;3.92;3.03;;;27.10;40.30;;;;;;5013164;28;20037;-64
2023/06/12 11:53:06;;;;;;;6.03;3.13;;;27.10;40.90;;;;;;5005800;28;20025;-64
2023/06/12 11:55:32;;;;;;;6.43;3.08;;;27.10;40.50;;;;;;5008444;28;20034;-64
2023/06/12 11:58:01;;;;;;;5.63;3.03;;;27.00;40.50;;;;;;5006134;28;20029;-64
2023/06/12 12:00:30;;;;;;;4.28;2.90;;;26.80;40.40;;;;;;5008532;28;20052;-63
2023/06/12 12:03:01;;;;;;;5.05;2.90;;;26.60;41.10;;;;;;5012257;28;20029;-64
2023/06/12 12:05:34;;;;;;;3.70;2.50;;;26.60;41.70;;;;;;5011084;28;20546;-64
2023/06/12 12:08:03;;;;;;;8.88;2.67;;;26.60;41.10;;;;;;5010631;28;20798;-63
2023/06/12 12:10:37;;;;;;;2.80;2.50;;;26.70;39.30;;;;;;5013617;28;20034;-64
2023/06/12 12:13:04;;;;;;;6.45;2.92;;;26.80;40.00;;;;;;5006020;28;20029;-63
2023/06/12 12:15:31;;;;;;;6.00;2.78;;;27.00;40.00;;;;;;5009569;28;20022;-64
2023/06/12 12:17:58;;;;;;;4.30;2.92;;;27.20;39.20;;;;;;5013000;28;20560;-64
2023/06/12 12:20:25;;;;;;;6.97;3.65;;;27.30;38.80;;;;;;5010187;28;20034;-64
2023/06/12 12:22:57;;;;;;;4.20;2.78;;;27.20;39.30;;;;;;5012724;28;20124;-63
2023/06/12 12:25:31;;;;;;;8.70;3.17;;;27.30;39.50;;;;;;5011426;28;20811;-63
2023/06/12 12:28:03;;;;;;;3.90;3.00;;;27.50;40.50;;;;;;5011673;28;20111;-63
2023/06/12 12:30:30;;;;;;;8.02;2.92;;;27.60;39.50;;;;;;5010064;28;20052;-63
2023/06/12 12:32:58;;;;;;;3.70;3.05;;;27.60;40.80;;;;;;5013794;28;20053;-63
2023/06/12 12:35:25;;;;;;;5.05;2.78;;;27.50;39.20;;;;;;5009983;28;20030;-63
2023/06/12 12:37:55;;;;;;;3.83;2.90;;;27.50;39.90;;;;;;5007732;28;20029;-63
2023/06/12 12:40:23;;;;;;;6.88;3.15;;;27.30;38.60;;;;;;5009553;28;20660;-63
2023/06/12 12:42:50;;;;;;;3.75;2.75;;;27.10;39.20;;;;;;5015331;28;20045;-63
2023/06/12 12:45:18;;;;;;;4.13;2.65;;;27.00;40.30;;;;;;5012655;28;20030;-63
2023/06/12 12:47:51;;;;;;;6.75;3.40;;;27.00;39.60;;;;;;5009978;28;20725;-63
2023/06/12 12:50:19;;;;;;;4.13;3.05;;;27.00;39.70;;;;;;5010107;28;20048;-63
2023/06/12 12:52:45;;;;;;;4.82;3.10;;;27.10;40.60;;;;;;5010713;28;20033;-64